Pacific Dawn — 2AGH7 — position and weather

sailwx.info

Track history (hours):
 
Tides and Currents Weather Stations Pressure Air Temp Water Temp Dewpoint Dewpoint Depression Visibility Wind Speed Wind Dir Waves Ship Positions

Pacific Dawn

Last reported at 2019-Apr-22 20:00 UTC. Time now 2019-Apr-24 22:34 UTC.
Position S 17°06' E 146°06'.

Length 245 m; draft 8.4 m.

Type: Passenger vessel. MMSI: 235059368.

Wind from 140 at 10 knots

Barometer 1012.8 mb
Air temperature 26.0 ° C
Visibility: greater than 10.8 NM
Dewpoint 23.1 ° C
Water temperature 26.0 ° C

Date/timePositionNaut miles runAvg speedWind from/ knotsBaromVisibWave heightAir tempDewpointWater temp
2019-Apr-22 20:00S 17°06' E 146°06'   140 / 101012.810.8 26.023.126.0
2019-Apr-20 08:58S 26°40' E 153°14'911.2
2019-Apr-20 08:10S 26°48' E 153°11'313.6
2019-Apr-20 07:59S 26°50' E 153°09'816.1
2019-Apr-20 07:30S 26°57' E 153°13'815.4
2019-Apr-20 07:00S 27°03' E 153°18'816.4
2019-Apr-20 06:30S 27°11' E 153°21'714.9
2019-Apr-20 06:00S 27°17' E 153°15'713.6
2019-Apr-20 05:31S 27°22' E 153°10'4 8.7
2019-Apr-20 05:01S 27°25' E 153°08'3 6.6
2019-Apr-20 04:30S 27°27' E 153°04'0 0.6
2019-Apr-20 03:58S 27°26' E 153°04'0 0.0
2019-Apr-20 03:28S 27°26' E 153°04'0 0.0
2019-Apr-20 02:58S 27°26' E 153°04'0 0.0
2019-Apr-20 02:28S 27°26' E 153°04'0 0.0
2019-Apr-20 01:58S 27°26' E 153°04'0 0.0
2019-Apr-20 01:28S 27°26' E 153°04'0 0.0
2019-Apr-20 00:58S 27°26' E 153°04'0 0.0
2019-Apr-20 00:28S 27°26' E 153°04'0 0.0
2019-Apr-19 23:58S 27°26' E 153°04'0 0.0
2019-Apr-19 23:28S 27°26' E 153°04'0 0.0
2019-Apr-19 22:58S 27°26' E 153°04'0 0.0
2019-Apr-19 22:28S 27°26' E 153°04'0 0.0
2019-Apr-19 21:58S 27°26' E 153°04'0 0.0
2019-Apr-19 21:28S 27°26' E 153°04'0 0.0
2019-Apr-19 20:58S 27°26' E 153°04'0 0.0
2019-Apr-19 20:28S 27°26' E 153°04'0 0.0
2019-Apr-19 19:58S 27°26' E 153°04'0 1.0
2019-Apr-19 19:30S 27°27' E 153°05'3 6.6
2019-Apr-19 19:00S 27°25' E 153°08'4 7.9
2019-Apr-19 18:30S 27°22' E 153°10'612.6
2019-Apr-19 18:00S 27°17' E 153°14'815.7
2019-Apr-19 17:30S 27°11' E 153°21'715.0
2019-Apr-19 17:00S 27°04' E 153°18'714.4
2019-Apr-19 16:31S 26°58' E 153°14'815.0
2019-Apr-19 16:00S 26°52' E 153°09'1012.7
2019-Apr-19 15:15S 26°42' E 153°11'2 9.8
2019-Apr-19 15:00S 26°41' E 153°13'4314.4
2019-Apr-19 12:00S 26°18' E 153°54'21417.8 100 / 321019.910.8 25.023.526.5
2019-Apr-19 00:00S 24°06' E 157°00'31019.4 130 / 251017.410.8 25.021.225.5
2019-Apr-18 08:00S 20°48' E 161°18'34417.2 130 / 331011.1 5.4 26.021.526.0
2019-Apr-17 12:00S 18°00' E 166°36'93 3.9 110 / 251010.910.8 25.524.127.5
2019-Apr-16 12:00S 19°18' E 167°30'190 7.8 130 / 301009.710.8 27.024.127.5
2019-Apr-15 11:47S 22°24' E 166°47'517.5
2019-Apr-15 11:30S 22°23' E 166°42'917.5
2019-Apr-15 11:00S 22°21' E 166°32'815.5
2019-Apr-15 10:30S 22°18' E 166°25'2 4.0
2019-Apr-15 09:59S 22°16' E 166°26'0 0.0
2019-Apr-15 09:29S 22°16' E 166°26'0 0.0
2019-Apr-15 08:59S 22°16' E 166°26'0 0.0
2019-Apr-15 08:29S 22°16' E 166°26'0 0.0
2019-Apr-15 07:59S 22°16' E 166°26'0 0.0
2019-Apr-15 07:29S 22°16' E 166°26'0 0.0
2019-Apr-15 06:59S 22°16' E 166°26'0 0.0
2019-Apr-15 06:29S 22°16' E 166°26'0 0.0
2019-Apr-15 05:59S 22°16' E 166°26'0 0.0
2019-Apr-15 05:29S 22°16' E 166°26'0 0.0
2019-Apr-15 04:59S 22°16' E 166°26'0 0.0
2019-Apr-15 04:29S 22°16' E 166°26'0 0.0
2019-Apr-15 03:59S 22°16' E 166°26'2 3.6
2019-Apr-15 03:30S 22°17' E 166°25'714.2
2019-Apr-15 03:01S 22°19' E 166°17'712.8
2019-Apr-15 02:29S 22°24' E 166°12'3514.2
2019-Apr-15 00:00S 22°36' E 165°36'21616.6 130 / 321010.710.8 28.025.226.5
2019-Apr-14 11:00S 23°48' E 161°54'19717.9 140 / 251013.310.8 24.017.625.5
2019-Apr-14 00:00S 24°54' E 158°30'13422.3 130 / 251015.610.8 26.024.625.0
2019-Apr-13 18:00S 25°42' E 156°12'4515.0 150 / 301016.710.8 23.014.626.5
2019-Apr-13 15:00S 25°54' E 155°24'12120.1 160 / 351016.710.8 23.014.626.5
2019-Apr-13 08:58S 26°41' E 153°19'813.9
2019-Apr-13 08:24S 26°43' E 153°11'513.6
2019-Apr-13 08:00S 26°48' E 153°11'713.4
2019-Apr-13 07:31S 26°55' E 153°12'917.2
2019-Apr-13 07:01S 27°03' E 153°16'815.9
2019-Apr-13 06:30S 27°09' E 153°21'815.8
2019-Apr-13 06:01S 27°16' E 153°17'714.4
2019-Apr-13 05:31S 27°21' E 153°11'4 8.7
2019-Apr-13 05:00S 27°25' E 153°09'3 6.9
2019-Apr-13 04:30S 27°27' E 153°05'1 2.2
2019-Apr-13 03:59S 27°26' E 153°04'0 0.0
2019-Apr-13 03:29S 27°26' E 153°04'0 0.0
2019-Apr-13 02:59S 27°26' E 153°04'0 0.0
2019-Apr-13 02:29S 27°26' E 153°04'0 0.0
2019-Apr-13 01:59S 27°26' E 153°04'0 0.0
2019-Apr-13 01:29S 27°26' E 153°04'0 0.0
2019-Apr-13 00:59S 27°26' E 153°04'0 0.0
2019-Apr-13 00:29S 27°26' E 153°04'0 0.0
2019-Apr-12 23:59S 27°26' E 153°04'0 0.0
2019-Apr-12 23:29S 27°26' E 153°04'0 0.0
2019-Apr-12 22:59S 27°26' E 153°04'0 0.0
2019-Apr-12 22:29S 27°26' E 153°04'0 0.0
2019-Apr-12 21:59S 27°26' E 153°04'0 0.0
2019-Apr-12 21:29S 27°26' E 153°04'0 0.0
2019-Apr-12 20:59S 27°26' E 153°04'0 0.0
2019-Apr-12 20:29S 27°26' E 153°04'  
Track history (hours):
 
Tides and Currents Weather Stations Pressure Air Temp Water Temp Dewpoint Dewpoint Depression Visibility Wind Speed Wind Dir Waves Ship Positions

Pacific Dawn

Last reported at 2019-Apr-22 20:00 UTC. Time now 2019-Apr-24 22:34 UTC.
Position S 17°06' E 146°06'.

Length 245 m; draft 8.4 m.

Type: Passenger vessel. MMSI: 235059368.

Wind from 140 at 10 knots

Barometer 1012.8 mb
Air temperature 26.0 ° C
Visibility: greater than 10.8 NM
Dewpoint 23.1 ° C
Water temperature 26.0 ° C

Date/timePositionNaut miles runAvg speedWind from/ knotsBaromVisibWave heightAir tempDewpointWater temp
2019-Apr-22 20:00S 17°06' E 146°06'   140 / 101012.810.8 26.023.126.0
2019-Apr-20 08:58S 26°40' E 153°14'911.2
2019-Apr-20 08:10S 26°48' E 153°11'313.6
2019-Apr-20 07:59S 26°50' E 153°09'816.1
2019-Apr-20 07:30S 26°57' E 153°13'815.4
2019-Apr-20 07:00S 27°03' E 153°18'816.4
2019-Apr-20 06:30S 27°11' E 153°21'714.9
2019-Apr-20 06:00S 27°17' E 153°15'713.6
2019-Apr-20 05:31S 27°22' E 153°10'4 8.7
2019-Apr-20 05:01S 27°25' E 153°08'3 6.6
2019-Apr-20 04:30S 27°27' E 153°04'0 0.6
2019-Apr-20 03:58S 27°26' E 153°04'0 0.0
2019-Apr-20 03:28S 27°26' E 153°04'0 0.0
2019-Apr-20 02:58S 27°26' E 153°04'0 0.0
2019-Apr-20 02:28S 27°26' E 153°04'0 0.0
2019-Apr-20 01:58S 27°26' E 153°04'0 0.0
2019-Apr-20 01:28S 27°26' E 153°04'0 0.0
2019-Apr-20 00:58S 27°26' E 153°04'0 0.0
2019-Apr-20 00:28S 27°26' E 153°04'0 0.0
2019-Apr-19 23:58S 27°26' E 153°04'0 0.0
2019-Apr-19 23:28S 27°26' E 153°04'0 0.0
2019-Apr-19 22:58S 27°26' E 153°04'0 0.0
2019-Apr-19 22:28S 27°26' E 153°04'0 0.0
2019-Apr-19 21:58S 27°26' E 153°04'0 0.0
2019-Apr-19 21:28S 27°26' E 153°04'0 0.0
2019-Apr-19 20:58S 27°26' E 153°04'0 0.0
2019-Apr-19 20:28S 27°26' E 153°04'0 0.0
2019-Apr-19 19:58S 27°26' E 153°04'0 1.0
2019-Apr-19 19:30S 27°27' E 153°05'3 6.6
2019-Apr-19 19:00S 27°25' E 153°08'4 7.9
2019-Apr-19 18:30S 27°22' E 153°10'612.6
2019-Apr-19 18:00S 27°17' E 153°14'815.7
2019-Apr-19 17:30S 27°11' E 153°21'715.0
2019-Apr-19 17:00S 27°04' E 153°18'714.4
2019-Apr-19 16:31S 26°58' E 153°14'815.0
2019-Apr-19 16:00S 26°52' E 153°09'1012.7
2019-Apr-19 15:15S 26°42' E 153°11'2 9.8
2019-Apr-19 15:00S 26°41' E 153°13'4314.4
2019-Apr-19 12:00S 26°18' E 153°54'21417.8 100 / 321019.910.8 25.023.526.5
2019-Apr-19 00:00S 24°06' E 157°00'31019.4 130 / 251017.410.8 25.021.225.5
2019-Apr-18 08:00S 20°48' E 161°18'34417.2 130 / 331011.1 5.4 26.021.526.0
2019-Apr-17 12:00S 18°00' E 166°36'93 3.9 110 / 251010.910.8 25.524.127.5
2019-Apr-16 12:00S 19°18' E 167°30'190 7.8 130 / 301009.710.8 27.024.127.5
2019-Apr-15 11:47S 22°24' E 166°47'517.5
2019-Apr-15 11:30S 22°23' E 166°42'917.5
2019-Apr-15 11:00S 22°21' E 166°32'815.5
2019-Apr-15 10:30S 22°18' E 166°25'2 4.0
2019-Apr-15 09:59S 22°16' E 166°26'0 0.0
2019-Apr-15 09:29S 22°16' E 166°26'0 0.0
2019-Apr-15 08:59S 22°16' E 166°26'0 0.0
2019-Apr-15 08:29S 22°16' E 166°26'0 0.0
2019-Apr-15 07:59S 22°16' E 166°26'0 0.0
2019-Apr-15 07:29S 22°16' E 166°26'0 0.0
2019-Apr-15 06:59S 22°16' E 166°26'0 0.0
2019-Apr-15 06:29S 22°16' E 166°26'0 0.0
2019-Apr-15 05:59S 22°16' E 166°26'0 0.0
2019-Apr-15 05:29S 22°16' E 166°26'0 0.0
2019-Apr-15 04:59S 22°16' E 166°26'0 0.0
2019-Apr-15 04:29S 22°16' E 166°26'0 0.0
2019-Apr-15 03:59S 22°16' E 166°26'2 3.6
2019-Apr-15 03:30S 22°17' E 166°25'714.2
2019-Apr-15 03:01S 22°19' E 166°17'712.8
2019-Apr-15 02:29S 22°24' E 166°12'3514.2
2019-Apr-15 00:00S 22°36' E 165°36'21616.6 130 / 321010.710.8 28.025.226.5
2019-Apr-14 11:00S 23°48' E 161°54'19717.9 140 / 251013.310.8 24.017.625.5
2019-Apr-14 00:00S 24°54' E 158°30'13422.3 130 / 251015.610.8 26.024.625.0
2019-Apr-13 18:00S 25°42' E 156°12'4515.0 150 / 301016.710.8 23.014.626.5
2019-Apr-13 15:00S 25°54' E 155°24'12120.1 160 / 351016.710.8 23.014.626.5
2019-Apr-13 08:58S 26°41' E 153°19'813.9
2019-Apr-13 08:24S 26°43' E 153°11'513.6
2019-Apr-13 08:00S 26°48' E 153°11'713.4
2019-Apr-13 07:31S 26°55' E 153°12'917.2
2019-Apr-13 07:01S 27°03' E 153°16'815.9
2019-Apr-13 06:30S 27°09' E 153°21'815.8
2019-Apr-13 06:01S 27°16' E 153°17'714.4
2019-Apr-13 05:31S 27°21' E 153°11'4 8.7
2019-Apr-13 05:00S 27°25' E 153°09'3 6.9
2019-Apr-13 04:30S 27°27' E 153°05'1 2.2
2019-Apr-13 03:59S 27°26' E 153°04'0 0.0
2019-Apr-13 03:29S 27°26' E 153°04'0 0.0
2019-Apr-13 02:59S 27°26' E 153°04'0 0.0
2019-Apr-13 02:29S 27°26' E 153°04'0 0.0
2019-Apr-13 01:59S 27°26' E 153°04'0 0.0
2019-Apr-13 01:29S 27°26' E 153°04'0 0.0
2019-Apr-13 00:59S 27°26' E 153°04'0 0.0
2019-Apr-13 00:29S 27°26' E 153°04'0 0.0
2019-Apr-12 23:59S 27°26' E 153°04'0 0.0
2019-Apr-12 23:29S 27°26' E 153°04'0 0.0
2019-Apr-12 22:59S 27°26' E 153°04'0 0.0
2019-Apr-12 22:29S 27°26' E 153°04'0 0.0
2019-Apr-12 21:59S 27°26' E 153°04'0 0.0
2019-Apr-12 21:29S 27°26' E 153°04'0 0.0
2019-Apr-12 20:59S 27°26' E 153°04'0 0.0
2019-Apr-12 20:29S 27°26' E 153°04'  

Dump ship's entire track history